createdAt,value
2018-09-01T00:01:37.518Z,11.47
2018-09-01T00:04:06.329Z,10.90
2018-09-01T00:06:35.827Z,10.80
2018-09-01T00:09:06.031Z,10.13
2018-09-01T00:11:34.728Z,11.90
2018-09-01T00:14:04.152Z,10.33
2018-09-01T00:16:33.076Z,11.10
2018-09-01T00:19:01.816Z,12.70
2018-09-01T00:21:31.475Z,12.50
2018-09-01T00:24:04.184Z,10.70
2018-09-01T00:26:33.087Z,12.67
2018-09-01T00:29:01.687Z,12.23
2018-09-01T00:31:30.696Z,11.63
2018-09-01T00:33:59.785Z,12.60
2018-09-01T00:36:29.453Z,10.90
2018-09-01T00:39:05.623Z,11.13
2018-09-01T00:41:34.800Z,10.73
2018-09-01T00:44:03.735Z,11.97
2018-09-01T00:46:33.157Z,10.73
2018-09-01T00:49:01.882Z,9.90
2018-09-01T00:51:30.838Z,10.67
2018-09-01T00:53:59.482Z,11.27
2018-09-01T00:56:28.974Z,10.73
2018-09-01T00:58:57.673Z,10.83
2018-09-01T01:01:26.362Z,9.93
2018-09-01T01:03:55.709Z,10.07
2018-09-01T01:06:24.768Z,11.63
2018-09-01T01:08:54.062Z,10.80
2018-09-01T01:11:22.891Z,11.10
2018-09-01T01:13:51.604Z,11.00
2018-09-01T01:16:20.293Z,11.07
2018-09-01T01:18:49.004Z,11.17
2018-09-01T01:21:18.892Z,10.87
2018-09-01T01:23:47.463Z,9.43
2018-09-01T01:26:17.056Z,9.50
2018-09-01T01:28:45.639Z,9.80
2018-09-01T01:31:16.174Z,11.03
2018-09-01T01:33:44.989Z,9.60
2018-09-01T01:36:13.748Z,10.27
2018-09-01T01:38:42.563Z,9.77
2018-09-01T01:41:11.792Z,10.90
2018-09-01T01:43:40.949Z,10.73
2018-09-01T01:46:09.508Z,11.37
2018-09-01T01:48:38.532Z,10.27
2018-09-01T01:51:07.976Z,8.47
2018-09-01T01:53:36.805Z,11.00
2018-09-01T01:56:06.021Z,9.43
2018-09-01T01:58:35.589Z,9.57
2018-09-01T02:01:04.168Z,9.27
2018-09-01T02:03:32.877Z,8.40
2018-09-01T02:06:09.727Z,8.53
2018-09-01T02:08:38.412Z,7.40
2018-09-01T02:11:07.323Z,9.93
2018-09-01T02:13:36.003Z,9.53
2018-09-01T02:16:05.464Z,8.07
2018-09-01T02:18:34.503Z,8.70
2018-09-01T02:21:03.146Z,7.13
2018-09-01T02:23:31.807Z,8.40
2018-09-01T02:26:00.472Z,7.63
2018-09-01T02:28:29.868Z,7.10
2018-09-01T02:30:58.648Z,7.70
2018-09-01T02:33:27.414Z,6.47
2018-09-01T02:35:56.229Z,6.37
2018-09-01T02:38:25.344Z,7.03
2018-09-01T02:40:54.688Z,6.20
2018-09-01T02:43:23.321Z,5.10
2018-09-01T02:45:51.868Z,6.40
2018-09-01T02:48:22.123Z,7.40
2018-09-01T02:50:51.319Z,6.07
2018-09-01T02:53:20.388Z,6.60
2018-09-01T02:55:49.132Z,5.80
2018-09-01T02:58:17.867Z,6.40
2018-09-01T03:00:46.756Z,5.23
2018-09-01T03:03:16.364Z,5.20
2018-09-01T03:05:45.152Z,4.03
2018-09-01T03:08:13.860Z,4.00
2018-09-01T03:10:42.472Z,4.67
2018-09-01T03:13:12.722Z,4.27
2018-09-01T03:15:41.916Z,3.97
2018-09-01T03:18:10.815Z,4.10
2018-09-01T03:20:39.899Z,3.70
2018-09-01T03:23:09.266Z,3.50
2018-09-01T03:25:38.720Z,4.10
2018-09-01T03:28:07.605Z,4.17
2018-09-01T03:30:36.463Z,4.50
2018-09-01T03:33:05.384Z,3.77
2018-09-01T03:35:33.947Z,4.20
2018-09-01T03:38:02.956Z,3.70
2018-09-01T03:40:31.853Z,2.97
2018-09-01T03:43:00.522Z,4.07
2018-09-01T03:45:30.457Z,3.87
2018-09-01T03:47:59.043Z,3.50
2018-09-01T03:50:27.865Z,3.37
2018-09-01T03:52:56.503Z,4.63
2018-09-01T03:55:25.180Z,3.47
2018-09-01T03:57:53.911Z,4.43
2018-09-01T04:00:26.683Z,3.90
2018-09-01T04:02:56.231Z,4.20
2018-09-01T04:05:24.834Z,3.87
2018-09-01T04:07:53.535Z,3.93
2018-09-01T04:10:23.392Z,3.57
2018-09-01T04:12:52.087Z,3.70
2018-09-01T04:15:20.746Z,3.87
2018-09-01T04:17:49.650Z,3.57
2018-09-01T04:20:19.195Z,3.80
2018-09-01T04:22:48.832Z,4.03
2018-09-01T04:25:17.393Z,3.83
2018-09-01T04:27:46.063Z,4.37
2018-09-01T04:30:15.322Z,2.93
2018-09-01T04:32:44.121Z,2.43
2018-09-01T04:35:13.130Z,3.70
2018-09-01T04:37:41.886Z,3.60
2018-09-01T04:40:11.473Z,3.50
2018-09-01T04:42:40.280Z,3.60
2018-09-01T04:45:12.031Z,3.50
2018-09-01T04:47:40.747Z,4.13
2018-09-01T04:50:09.715Z,4.23
2018-09-01T04:52:38.427Z,4.07
2018-09-01T04:55:07.267Z,4.80
2018-09-01T04:57:36.647Z,4.67
2018-09-01T05:00:05.900Z,4.83
2018-09-01T05:02:34.620Z,5.13
2018-09-01T05:05:04.393Z,3.67
2018-09-01T05:07:33.000Z,4.40
2018-09-01T05:10:02.919Z,5.00
2018-09-01T05:12:31.607Z,3.97
2018-09-01T05:15:00.292Z,3.43
2018-09-01T05:17:28.954Z,3.70
2018-09-01T05:19:57.492Z,3.13
2018-09-01T05:22:26.520Z,3.60
2018-09-01T05:24:56.206Z,3.13
2018-09-01T05:27:24.942Z,3.50
2018-09-01T05:29:53.855Z,4.00
2018-09-01T05:32:22.733Z,5.13
2018-09-01T05:34:51.417Z,4.73
2018-09-01T05:37:20.112Z,4.70
2018-09-01T05:39:49.585Z,4.50
2018-09-01T05:42:18.347Z,4.40
2018-09-01T05:44:46.955Z,5.40
2018-09-01T05:47:15.669Z,5.23
2018-09-01T05:49:44.382Z,4.80
2018-09-01T05:52:14.388Z,4.17
2018-09-01T05:54:43.155Z,4.70
2018-09-01T05:57:12.205Z,3.10
2018-09-01T05:59:41.109Z,3.67
2018-09-01T06:02:10.817Z,8.30
2018-09-01T06:04:39.507Z,8.47
2018-09-01T06:07:08.326Z,8.23
2018-09-01T06:09:37.655Z,6.50
2018-09-01T06:12:06.540Z,6.47
2018-09-01T06:14:36.227Z,7.57
2018-09-01T06:17:06.083Z,6.50
2018-09-01T06:19:34.701Z,5.70
2018-09-01T06:22:04.228Z,5.60
2018-09-01T06:24:33.121Z,6.70
2018-09-01T06:27:05.327Z,7.73
2018-09-01T06:29:34.010Z,8.23
2018-09-01T06:32:04.979Z,8.67
2018-09-01T06:34:33.883Z,6.97
2018-09-01T06:37:03.067Z,3.87
2018-09-01T06:39:31.832Z,4.37
2018-09-01T06:42:00.629Z,6.20
2018-09-01T06:44:30.326Z,26.30
2018-09-01T06:46:59.197Z,17.83
2018-09-01T06:49:27.888Z,16.37
2018-09-01T06:51:56.640Z,17.80
2018-09-01T06:54:25.260Z,19.60
2018-09-01T06:56:53.943Z,17.20
2018-09-01T06:59:23.564Z,10.60
2018-09-01T07:01:52.439Z,9.77
2018-09-01T07:04:21.355Z,8.77
2018-09-01T07:06:50.124Z,9.23
2018-09-01T07:09:18.819Z,6.63
2018-09-01T07:11:47.707Z,5.23
2018-09-01T07:14:16.384Z,4.83
2018-09-01T07:16:45.204Z,6.63
2018-09-01T07:22:16.364Z,5.80
2018-09-01T07:24:45.062Z,6.10
2018-09-01T07:27:13.596Z,5.37
2018-09-01T07:29:42.251Z,5.00
2018-09-01T07:32:10.894Z,5.47
2018-09-01T07:34:39.634Z,5.00
2018-09-01T07:37:08.999Z,6.33
2018-09-01T07:39:45.455Z,6.80
2018-09-01T07:42:14.059Z,5.10
2018-09-01T07:44:42.991Z,5.47
2018-09-01T07:47:12.217Z,5.40
2018-09-01T07:49:41.288Z,6.17
2018-09-01T07:52:09.965Z,6.00
2018-09-01T07:54:46.758Z,6.90
2018-09-01T07:57:16.452Z,6.37
2018-09-01T07:59:45.111Z,5.97
2018-09-01T08:02:13.971Z,6.67
2018-09-01T08:04:43.711Z,7.10
2018-09-01T08:07:13.924Z,7.60
2018-09-01T08:09:43.276Z,9.13
2018-09-01T08:12:12.178Z,9.20
2018-09-01T08:14:41.171Z,11.03
2018-09-01T08:17:10.348Z,9.43
2018-09-01T08:19:39.759Z,10.00
2018-09-01T08:22:10.604Z,9.63
2018-09-01T08:24:39.330Z,9.70
2018-09-01T08:27:07.868Z,8.00
2018-09-01T08:29:36.634Z,10.07
2018-09-01T08:32:06.265Z,11.77
2018-09-01T08:34:35.180Z,10.13
2018-09-01T08:37:04.369Z,10.43
2018-09-01T08:39:33.881Z,11.40
2018-09-01T08:42:02.711Z,10.97
2018-09-01T08:44:31.554Z,12.90
2018-09-01T08:47:00.977Z,14.30
2018-09-01T08:49:29.593Z,12.60
2018-09-01T08:51:58.294Z,14.53
2018-09-01T08:54:27.031Z,14.27
2018-09-01T08:56:55.643Z,13.17
2018-09-01T08:59:24.344Z,14.30
2018-09-01T09:01:53.445Z,13.83
2018-09-01T09:04:22.655Z,13.87
2018-09-01T09:06:52.872Z,15.70
2018-09-01T09:09:21.748Z,16.03
2018-09-01T09:11:50.693Z,15.60
2018-09-01T09:14:19.572Z,14.63
2018-09-01T09:16:48.520Z,15.10
2018-09-01T09:19:18.454Z,15.07
2018-09-01T09:21:48.068Z,15.67
2018-09-01T09:24:17.028Z,19.47
2018-09-01T09:26:45.604Z,15.07
2018-09-01T09:29:14.733Z,16.57
2018-09-01T09:31:43.565Z,15.90
2018-09-01T09:34:13.193Z,14.93
2018-09-01T09:36:41.793Z,15.33
2018-09-01T09:39:12.793Z,15.00
2018-09-01T09:41:41.828Z,15.40
2018-09-01T09:44:10.484Z,14.20
2018-09-01T09:46:39.521Z,14.00
2018-09-01T09:49:08.581Z,14.57
2018-09-01T09:51:37.590Z,14.73
2018-09-01T09:54:06.306Z,16.23
2018-09-01T09:56:35.735Z,15.47
2018-09-01T09:59:04.589Z,19.00
2018-09-01T10:01:39.891Z,15.40
2018-09-01T10:04:10.005Z,16.83
2018-09-01T10:06:39.308Z,16.10
2018-09-01T10:09:13.145Z,15.93
2018-09-01T10:11:44.265Z,15.00
2018-09-01T10:14:13.573Z,15.87
2018-09-01T10:16:42.653Z,15.13
2018-09-01T10:19:11.589Z,16.00
2018-09-01T10:21:40.417Z,16.60
2018-09-01T10:24:09.328Z,16.53
2018-09-01T10:26:38.530Z,14.10
2018-09-01T10:29:07.778Z,15.80
2018-09-01T10:31:36.571Z,16.90
2018-09-01T10:34:05.486Z,23.97
2018-09-01T10:36:34.376Z,17.70
2018-09-01T10:39:05.487Z,15.30
2018-09-01T10:41:34.591Z,15.30
2018-09-01T10:44:04.591Z,15.20
2018-09-01T10:46:33.275Z,16.63
2018-09-01T10:49:02.077Z,15.40
2018-09-01T10:51:31.858Z,16.03
2018-09-01T10:54:01.103Z,14.90
2018-09-01T10:56:30.012Z,12.90
2018-09-01T10:59:08.261Z,13.47
2018-09-01T11:01:45.940Z,13.37
2018-09-01T11:04:25.239Z,12.37
2018-09-01T11:06:55.111Z,12.23
2018-09-01T11:09:23.946Z,12.23
2018-09-01T11:11:52.709Z,12.60
2018-09-01T11:14:21.496Z,12.00
2018-09-01T11:16:50.181Z,9.70
2018-09-01T11:19:22.017Z,9.73
2018-09-01T11:22:03.048Z,9.97
2018-09-01T11:24:31.793Z,9.47
2018-09-01T11:27:00.545Z,8.30
2018-09-01T11:29:29.376Z,10.30
2018-09-01T11:31:58.668Z,9.07
2018-09-01T11:34:43.095Z,10.17
2018-09-01T11:37:12.001Z,9.63
2018-09-01T11:39:49.879Z,8.37
2018-09-01T11:42:27.666Z,10.13
2018-09-01T11:44:56.556Z,10.70
2018-09-01T11:47:25.413Z,10.50
2018-09-01T11:49:54.110Z,9.67
2018-09-01T11:52:24.019Z,10.10
2018-09-01T11:54:53.676Z,9.83
2018-09-01T11:57:23.858Z,8.93
2018-09-01T11:59:52.539Z,8.07
2018-09-01T12:02:21.312Z,9.37
2018-09-01T12:04:50.484Z,8.10
2018-09-01T12:07:20.123Z,9.10
2018-09-01T12:09:49.292Z,8.50
2018-09-01T12:12:18.208Z,9.47
2018-09-01T12:14:46.817Z,12.40
2018-09-01T12:17:15.575Z,10.47
2018-09-01T12:19:44.690Z,11.60
2018-09-01T12:22:14.193Z,12.10
2018-09-01T12:24:43.426Z,11.07
2018-09-01T12:27:13.581Z,10.47
2018-09-01T12:29:42.436Z,12.13
2018-09-01T12:32:11.083Z,7.67
2018-09-01T12:34:39.638Z,5.13
2018-09-01T12:37:08.358Z,4.40
2018-09-01T12:39:37.175Z,4.10
2018-09-01T12:42:06.495Z,5.20
2018-09-01T12:44:35.235Z,5.57
2018-09-01T12:47:04.000Z,5.50
2018-09-01T12:49:33.144Z,5.93
2018-09-01T12:52:01.777Z,5.70
2018-09-01T12:54:30.722Z,4.90
2018-09-01T12:56:59.635Z,6.40
2018-09-01T12:59:28.423Z,6.17
2018-09-01T13:02:08.181Z,5.40
2018-09-01T13:04:46.823Z,6.00
2018-09-01T13:07:24.786Z,4.83
2018-09-01T13:09:53.571Z,4.43
2018-09-01T13:12:22.271Z,3.63
2018-09-01T13:14:50.911Z,2.93
2018-09-01T13:17:19.602Z,3.57
2018-09-01T13:19:48.323Z,3.57
2018-09-01T13:22:17.588Z,4.67
2018-09-01T13:24:46.267Z,5.37
2018-09-01T13:27:15.374Z,4.30
2018-09-01T13:29:45.050Z,4.30
2018-09-01T13:32:14.624Z,5.03
2018-09-01T13:34:51.636Z,4.53
2018-09-01T13:37:28.101Z,4.97
2018-09-01T13:39:56.854Z,3.90
2018-09-01T13:42:25.704Z,3.27
2018-09-01T13:44:54.295Z,3.60
2018-09-01T13:47:23.067Z,4.03
2018-09-01T13:49:51.859Z,3.53
2018-09-01T13:52:20.580Z,3.43
2018-09-01T13:54:49.311Z,3.00
2018-09-01T13:57:18.054Z,3.40
2018-09-01T13:59:46.709Z,3.20
2018-09-01T14:02:15.387Z,2.83
2018-09-01T14:04:44.075Z,3.13
2018-09-01T14:07:13.231Z,2.70
2018-09-01T14:09:43.512Z,2.40
2018-09-01T14:12:12.163Z,2.27
2018-09-01T14:14:41.058Z,1.80
2018-09-01T14:17:09.997Z,2.23
2018-09-01T14:19:39.459Z,2.00
2018-09-01T14:22:08.603Z,1.70
2018-09-01T14:24:37.186Z,1.80
2018-09-01T14:27:06.145Z,1.70
2018-09-01T14:29:34.986Z,2.40
2018-09-01T14:32:03.683Z,2.70
2018-09-01T14:34:32.988Z,2.47
2018-09-01T14:37:01.766Z,3.50
2018-09-01T14:39:30.436Z,2.43
2018-09-01T14:41:59.647Z,2.03
2018-09-01T14:44:28.468Z,2.50
2018-09-01T14:46:58.776Z,3.10
2018-09-01T14:49:27.584Z,3.00
2018-09-01T14:51:56.237Z,2.20
2018-09-01T14:54:24.991Z,3.40
2018-09-01T14:56:54.831Z,2.57
2018-09-01T14:59:23.608Z,3.00
2018-09-01T15:01:52.416Z,3.00
2018-09-01T15:04:21.198Z,2.40
2018-09-01T15:06:51.054Z,2.50
2018-09-01T15:09:19.679Z,2.30
2018-09-01T15:11:48.385Z,2.50
2018-09-01T15:14:17.732Z,2.40
2018-09-01T15:16:46.356Z,3.27
2018-09-01T15:19:15.736Z,3.50
2018-09-01T15:21:44.609Z,3.73
2018-09-01T15:24:15.094Z,3.50
2018-09-01T15:26:45.412Z,3.50
2018-09-01T15:29:14.360Z,2.40
2018-09-01T15:31:43.385Z,3.30
2018-09-01T15:34:12.007Z,3.57
2018-09-01T15:36:40.803Z,3.50
2018-09-01T15:39:09.436Z,3.00
2018-09-01T15:41:39.928Z,4.47
2018-09-01T15:44:10.552Z,4.93
2018-09-01T15:46:39.412Z,4.33
2018-09-01T15:49:08.128Z,3.80
2018-09-01T15:51:37.135Z,4.30
2018-09-01T15:54:06.113Z,3.77
2018-09-01T15:56:35.937Z,3.80
2018-09-01T15:59:05.260Z,4.10
2018-09-01T16:01:34.567Z,4.80
2018-09-01T16:04:03.244Z,4.00
2018-09-01T16:06:31.978Z,3.37
2018-09-01T16:09:01.000Z,3.40
2018-09-01T16:11:29.780Z,3.17
2018-09-01T16:13:58.747Z,3.03
2018-09-01T16:16:27.477Z,2.50
2018-09-01T16:22:03.924Z,2.40
2018-09-01T16:24:32.628Z,2.93
2018-09-01T16:27:01.257Z,2.70
2018-09-01T16:29:29.923Z,2.80
2018-09-01T16:32:02.771Z,2.77
2018-09-01T16:34:31.460Z,2.40
2018-09-01T16:37:00.122Z,2.30
2018-09-01T16:39:29.802Z,3.20
2018-09-01T16:41:58.516Z,2.90
2018-09-01T16:44:27.144Z,2.33
2018-09-01T16:46:56.035Z,2.60
2018-09-01T16:49:24.719Z,2.43
2018-09-01T16:51:53.415Z,2.43
2018-09-01T16:54:22.172Z,2.60
2018-09-01T16:56:50.998Z,2.70
2018-09-01T16:59:19.679Z,3.17
2018-09-01T17:01:49.264Z,3.77
2018-09-01T17:04:18.502Z,2.53
2018-09-01T17:06:47.172Z,3.57
2018-09-01T17:09:16.543Z,3.57
2018-09-01T17:11:47.144Z,2.90
2018-09-01T17:14:15.895Z,3.47
2018-09-01T17:16:44.559Z,3.57
2018-09-01T17:19:13.253Z,3.43
2018-09-01T17:21:41.964Z,4.00
2018-09-01T17:24:10.667Z,4.00
2018-09-01T17:26:39.324Z,2.90
2018-09-01T17:29:08.811Z,3.20
2018-09-01T17:31:37.698Z,3.00
2018-09-01T17:34:06.616Z,3.40
2018-09-01T17:36:35.648Z,3.57
2018-09-01T17:39:07.412Z,4.00
2018-09-01T17:41:36.284Z,4.40
2018-09-01T17:44:05.215Z,4.60
2018-09-01T17:46:34.385Z,4.20
2018-09-01T17:49:03.304Z,5.10
2018-09-01T17:51:32.084Z,4.33
2018-09-01T17:54:00.787Z,6.07
2018-09-01T17:56:29.528Z,5.40
2018-09-01T17:58:58.168Z,6.20
2018-09-01T18:01:28.041Z,5.47
2018-09-01T18:03:56.754Z,5.80
2018-09-01T18:06:25.856Z,5.70
2018-09-01T18:08:55.171Z,4.93
2018-09-01T18:11:23.823Z,5.80
2018-09-01T18:13:52.812Z,6.27
2018-09-01T18:16:21.848Z,5.90
2018-09-01T18:18:50.676Z,5.43
2018-09-01T18:21:19.789Z,5.30
2018-09-01T18:23:48.391Z,6.73
2018-09-01T18:26:17.143Z,5.50
2018-09-01T18:28:46.075Z,6.00
2018-09-01T18:31:15.227Z,7.60
2018-09-01T18:33:44.292Z,6.67
2018-09-01T18:36:12.905Z,8.33
2018-09-01T18:38:41.605Z,8.63
2018-09-01T18:41:10.570Z,9.63
2018-09-01T18:43:39.116Z,9.07
2018-09-01T18:46:08.052Z,10.47
2018-09-01T18:48:36.768Z,9.00
2018-09-01T18:51:05.710Z,11.03
2018-09-01T18:53:35.775Z,10.60
2018-09-01T18:56:04.704Z,11.63
2018-09-01T18:58:33.570Z,11.43
2018-09-01T19:01:02.687Z,12.40
2018-09-01T19:03:31.945Z,13.00
2018-09-01T19:06:00.778Z,11.77
2018-09-01T19:08:29.503Z,11.20
2018-09-01T19:10:58.391Z,11.50
2018-09-01T19:13:27.443Z,11.87
2018-09-01T19:15:56.682Z,11.47
2018-09-01T19:18:25.653Z,9.80
2018-09-01T19:20:54.543Z,11.30
2018-09-01T19:23:23.609Z,11.50
2018-09-01T19:25:52.361Z,10.43
2018-09-01T19:28:21.067Z,10.90
2018-09-01T19:30:49.749Z,12.77
2018-09-01T19:33:19.845Z,12.40
2018-09-01T19:35:48.735Z,11.50
2018-09-01T19:38:18.071Z,10.43
2018-09-01T19:40:47.105Z,12.10
2018-09-01T19:43:16.003Z,10.40
2018-09-01T19:45:44.818Z,10.73
2018-09-01T19:48:13.575Z,11.30
2018-09-01T19:50:43.440Z,10.37
2018-09-01T19:53:12.419Z,10.53
2018-09-01T19:55:41.048Z,11.07
2018-09-01T19:58:10.413Z,10.97
2018-09-01T20:00:40.124Z,10.97
2018-09-01T20:03:10.064Z,10.50
2018-09-01T20:05:38.672Z,9.73
2018-09-01T20:08:08.821Z,10.00
2018-09-01T20:10:46.975Z,8.87
2018-09-01T20:13:26.157Z,10.10
2018-09-01T20:16:04.303Z,8.70
2018-09-01T20:18:32.922Z,8.77
2018-09-01T20:21:01.499Z,8.73
2018-09-01T20:23:30.765Z,9.37
2018-09-01T20:25:59.695Z,9.80
2018-09-01T20:28:28.626Z,9.43
2018-09-01T20:30:57.492Z,9.30
2018-09-01T20:33:27.659Z,8.83
2018-09-01T20:35:57.711Z,9.10
2018-09-01T20:38:28.259Z,8.73
2018-09-01T20:40:57.035Z,7.90
2018-09-01T20:43:26.615Z,7.37
2018-09-01T20:45:55.537Z,9.73
2018-09-01T20:48:24.672Z,8.53
2018-09-01T20:50:53.508Z,9.43
2018-09-01T20:53:22.187Z,10.30
2018-09-01T20:55:51.072Z,7.93
2018-09-01T20:58:20.399Z,8.37
2018-09-01T21:00:49.121Z,8.07
2018-09-01T21:03:18.075Z,7.97
2018-09-01T21:05:46.912Z,7.93
2018-09-01T21:08:16.066Z,6.63
2018-09-01T21:10:44.804Z,7.00
2018-09-01T21:13:13.717Z,7.90
2018-09-01T21:15:42.360Z,6.30
2018-09-01T21:18:11.220Z,8.10
2018-09-01T21:20:39.948Z,7.00
2018-09-01T21:23:09.911Z,6.40
2018-09-01T21:25:38.683Z,6.87
2018-09-01T21:28:21.881Z,6.83
2018-09-01T21:30:59.145Z,6.97
2018-09-01T21:33:35.953Z,7.30
2018-09-01T21:36:13.509Z,7.60
2018-09-01T21:38:55.988Z,7.20
2018-09-01T21:41:35.975Z,7.73
2018-09-01T21:44:04.884Z,6.77
2018-09-01T21:46:35.309Z,6.73
2018-09-01T21:49:04.492Z,6.47
2018-09-01T21:51:33.333Z,6.03
2018-09-01T21:54:02.095Z,6.90
2018-09-01T21:56:31.569Z,7.37
2018-09-01T21:59:00.447Z,5.30
2018-09-01T22:01:34.847Z,6.30
2018-09-01T22:04:03.556Z,5.73
2018-09-01T22:06:32.384Z,5.50
2018-09-01T22:09:02.203Z,5.00
2018-09-01T22:11:30.858Z,4.80
2018-09-01T22:13:59.654Z,5.90
2018-09-01T22:16:28.234Z,5.60
2018-09-01T22:21:51.329Z,5.00
2018-09-01T22:24:20.317Z,4.50
2018-09-01T22:26:48.980Z,4.50
2018-09-01T22:29:17.717Z,4.90
2018-09-01T22:31:47.184Z,4.43
2018-09-01T22:34:15.729Z,4.83
2018-09-01T22:36:44.624Z,3.97
2018-09-01T22:39:14.056Z,3.20
2018-09-01T22:41:51.197Z,3.47
2018-09-01T22:44:30.874Z,3.77
2018-09-01T22:47:14.333Z,3.30
2018-09-01T22:49:51.906Z,2.77
2018-09-01T22:52:21.314Z,3.30
2018-09-01T22:54:50.206Z,3.47
2018-09-01T22:57:19.041Z,3.67
2018-09-01T22:59:47.915Z,3.10
2018-09-01T23:02:17.035Z,3.50
2018-09-01T23:04:46.088Z,2.40
2018-09-01T23:07:15.011Z,2.33
2018-09-01T23:09:43.936Z,2.23
2018-09-01T23:12:12.482Z,2.50
2018-09-01T23:14:41.095Z,1.97
2018-09-01T23:17:09.865Z,1.77
2018-09-01T23:19:39.599Z,1.63
2018-09-01T23:22:08.380Z,1.33
2018-09-01T23:24:37.027Z,1.47
2018-09-01T23:29:56.569Z,1.20
2018-09-01T23:32:25.380Z,1.40
2018-09-01T23:34:54.336Z,1.07
2018-09-01T23:37:31.080Z,1.50
2018-09-01T23:39:59.667Z,2.40
2018-09-01T23:42:29.187Z,1.00
2018-09-01T23:44:57.865Z,1.13
2018-09-01T23:47:27.441Z,0.80
2018-09-01T23:49:59.555Z,0.80
2018-09-01T23:52:28.903Z,0.70
2018-09-01T23:54:57.717Z,0.80
2018-09-01T23:57:27.221Z,0.80
2018-09-01T23:59:55.943Z,0.90
